sensor_id;sensor_type;location;lat;lon;timestamp;pressure;altitude;pressure_sealevel;temperature;humidity
24620;BME280;12763;55.802;37.404;2022-09-13T00:01:33;99534.25;;;13.66;60.31
24620;BME280;12763;55.802;37.404;2022-09-13T00:03:59;99530.63;;;13.65;60.36
24620;BME280;12763;55.802;37.404;2022-09-13T00:06:25;99537.28;;;13.64;60.46
24620;BME280;12763;55.802;37.404;2022-09-13T00:08:51;99538.56;;;13.62;60.61
24620;BME280;12763;55.802;37.404;2022-09-13T00:11:21;99527.72;;;13.60;60.63
24620;BME280;12763;55.802;37.404;2022-09-13T00:13:48;99526.16;;;13.52;60.81
24620;BME280;12763;55.802;37.404;2022-09-13T00:16:16;99530.84;;;13.52;60.82
24620;BME280;12763;55.802;37.404;2022-09-13T00:18:43;99521.78;;;13.45;61.03
24620;BME280;12763;55.802;37.404;2022-09-13T00:21:13;99532.38;;;13.48;60.85
24620;BME280;12763;55.802;37.404;2022-09-13T00:23:43;99526.97;;;13.41;61.00
24620;BME280;12763;55.802;37.404;2022-09-13T00:26:15;99519.00;;;13.33;61.63
24620;BME280;12763;55.802;37.404;2022-09-13T00:28:43;99520.03;;;13.21;61.65
24620;BME280;12763;55.802;37.404;2022-09-13T00:31:12;99516.66;;;13.19;61.54
24620;BME280;12763;55.802;37.404;2022-09-13T00:33:39;99503.06;;;13.17;61.66
24620;BME280;12763;55.802;37.404;2022-09-13T00:36:07;99515.72;;;13.07;62.10
24620;BME280;12763;55.802;37.404;2022-09-13T00:38:38;99516.53;;;13.14;62.05
24620;BME280;12763;55.802;37.404;2022-09-13T00:41:06;99525.00;;;13.01;62.24
24620;BME280;12763;55.802;37.404;2022-09-13T00:43:49;99515.59;;;13.02;62.94
24620;BME280;12763;55.802;37.404;2022-09-13T00:49:20;99511.94;;;12.89;63.23
24620;BME280;12763;55.802;37.404;2022-09-13T00:51:51;99518.69;;;12.93;62.83
24620;BME280;12763;55.802;37.404;2022-09-13T00:54:21;99515.72;;;12.95;62.57
24620;BME280;12763;55.802;37.404;2022-09-13T00:56:54;99513.75;;;12.95;62.92
24620;BME280;12763;55.802;37.404;2022-09-13T00:59:27;99512.44;;;12.98;62.64
24620;BME280;12763;55.802;37.404;2022-09-13T01:01:56;99511.00;;;12.95;62.64
24620;BME280;12763;55.802;37.404;2022-09-13T01:04:25;99502.94;;;12.94;62.88
24620;BME280;12763;55.802;37.404;2022-09-13T01:06:54;99501.47;;;12.91;63.16
24620;BME280;12763;55.802;37.404;2022-09-13T01:09:21;99500.25;;;12.87;63.24
24620;BME280;12763;55.802;37.404;2022-09-13T01:11:56;99499.38;;;12.87;62.82
24620;BME280;12763;55.802;37.404;2022-09-13T01:14:28;99496.72;;;12.80;63.08
24620;BME280;12763;55.802;37.404;2022-09-13T01:16:55;99505.50;;;12.77;63.42
24620;BME280;12763;55.802;37.404;2022-09-13T01:19:21;99507.50;;;12.70;63.45
24620;BME280;12763;55.802;37.404;2022-09-13T01:30:21;99507.16;;;12.67;63.77
24620;BME280;12763;55.802;37.404;2022-09-13T01:33:20;99501.69;;;12.60;64.16
24620;BME280;12763;55.802;37.404;2022-09-13T01:35:54;99514.63;;;12.48;64.12
24620;BME280;12763;55.802;37.404;2022-09-13T01:38:41;99511.38;;;12.51;64.77
24620;BME280;12763;55.802;37.404;2022-09-13T01:55:38;99499.88;;;12.36;65.05
24620;BME280;12763;55.802;37.404;2022-09-13T01:58:26;99498.06;;;12.23;65.84
24620;BME280;12763;55.802;37.404;2022-09-13T02:01:05;99506.47;;;12.17;66.05
24620;BME280;12763;55.802;37.404;2022-09-13T02:03:51;99495.41;;;12.17;65.79
24620;BME280;12763;55.802;37.404;2022-09-13T02:06:31;99492.50;;;12.12;66.18
24620;BME280;12763;55.802;37.404;2022-09-13T02:09:27;99499.09;;;12.11;66.81
24620;BME280;12763;55.802;37.404;2022-09-13T02:12:06;99492.09;;;12.08;66.53
24620;BME280;12763;55.802;37.404;2022-09-13T02:14:36;99495.56;;;12.04;66.42
24620;BME280;12763;55.802;37.404;2022-09-13T02:17:06;99497.22;;;12.05;66.77
24620;BME280;12763;55.802;37.404;2022-09-13T02:22:02;99497.69;;;12.02;66.42
24620;BME280;12763;55.802;37.404;2022-09-13T02:24:55;99491.38;;;11.95;67.24
24620;BME280;12763;55.802;37.404;2022-09-13T02:27:24;99493.84;;;12.03;66.97
24620;BME280;12763;55.802;37.404;2022-09-13T02:29:53;99491.94;;;12.03;66.65
24620;BME280;12763;55.802;37.404;2022-09-13T02:32:23;99485.81;;;12.01;66.81
24620;BME280;12763;55.802;37.404;2022-09-13T02:34:54;99479.63;;;11.99;66.77
24620;BME280;12763;55.802;37.404;2022-09-13T02:37:24;99483.94;;;11.95;66.78
24620;BME280;12763;55.802;37.404;2022-09-13T02:39:56;99478.16;;;11.97;67.06
24620;BME280;12763;55.802;37.404;2022-09-13T02:42:47;99480.94;;;11.97;67.02
24620;BME280;12763;55.802;37.404;2022-09-13T02:45:16;99476.97;;;11.93;66.66
24620;BME280;12763;55.802;37.404;2022-09-13T02:47:59;99483.09;;;11.95;67.18
24620;BME280;12763;55.802;37.404;2022-09-13T02:50:36;99480.09;;;11.96;66.71
24620;BME280;12763;55.802;37.404;2022-09-13T02:55:52;99474.09;;;11.81;67.02
24620;BME280;12763;55.802;37.404;2022-09-13T03:01:07;99481.38;;;11.75;67.11
24620;BME280;12763;55.802;37.404;2022-09-13T03:03:33;99479.69;;;11.74;67.19
24620;BME280;12763;55.802;37.404;2022-09-13T03:05:59;99487.81;;;11.69;67.81
24620;BME280;12763;55.802;37.404;2022-09-13T03:08:26;99479.06;;;11.72;67.54
24620;BME280;12763;55.802;37.404;2022-09-13T03:11:03;99469.63;;;11.80;67.68
24620;BME280;12763;55.802;37.404;2022-09-13T03:13:43;99472.63;;;11.78;67.88
24620;BME280;12763;55.802;37.404;2022-09-13T03:22:05;99457.50;;;11.81;67.69
24620;BME280;12763;55.802;37.404;2022-09-13T03:29:52;99449.84;;;12.01;67.13
24620;BME280;12763;55.802;37.404;2022-09-13T03:35:28;99457.88;;;12.21;66.95
24620;BME280;12763;55.802;37.404;2022-09-13T03:43:02;99463.41;;;12.21;66.22
24620;BME280;12763;55.802;37.404;2022-09-13T03:45:34;99473.56;;;12.27;66.28
24620;BME280;12763;55.802;37.404;2022-09-13T03:48:03;99469.34;;;12.24;66.15
24620;BME280;12763;55.802;37.404;2022-09-13T03:50:30;99463.28;;;12.34;65.84
24620;BME280;12763;55.802;37.404;2022-09-13T03:53:03;99451.66;;;12.44;65.95
24620;BME280;12763;55.802;37.404;2022-09-13T03:55:32;99460.66;;;12.39;65.77
24620;BME280;12763;55.802;37.404;2022-09-13T03:57:59;99456.44;;;12.36;65.93
24620;BME280;12763;55.802;37.404;2022-09-13T04:00:28;99453.44;;;12.38;65.89
24620;BME280;12763;55.802;37.404;2022-09-13T04:02:54;99453.75;;;12.30;65.88
24620;BME280;12763;55.802;37.404;2022-09-13T04:05:20;99454.03;;;12.40;65.61
24620;BME280;12763;55.802;37.404;2022-09-13T04:07:46;99442.03;;;12.46;65.44
24620;BME280;12763;55.802;37.404;2022-09-13T04:10:12;99453.25;;;12.51;65.24
24620;BME280;12763;55.802;37.404;2022-09-13T04:12:38;99448.69;;;12.57;64.88
24620;BME280;12763;55.802;37.404;2022-09-13T04:15:07;99448.63;;;12.63;64.78
24620;BME280;12763;55.802;37.404;2022-09-13T04:17:33;99454.41;;;12.62;64.70
24620;BME280;12763;55.802;37.404;2022-09-13T04:19:59;99442.94;;;12.58;65.04
24620;BME280;12763;55.802;37.404;2022-09-13T04:22:25;99435.25;;;12.60;65.01
24620;BME280;12763;55.802;37.404;2022-09-13T04:24:51;99441.16;;;12.64;65.25
24620;BME280;12763;55.802;37.404;2022-09-13T04:27:17;99439.53;;;12.74;64.57
24620;BME280;12763;55.802;37.404;2022-09-13T04:29:43;99440.13;;;12.76;64.55
24620;BME280;12763;55.802;37.404;2022-09-13T04:32:09;99452.31;;;12.87;64.41
24620;BME280;12763;55.802;37.404;2022-09-13T04:34:35;99447.63;;;12.87;64.22
24620;BME280;12763;55.802;37.404;2022-09-13T04:37:01;99462.25;;;12.94;64.13
24620;BME280;12763;55.802;37.404;2022-09-13T04:39:27;99454.66;;;13.02;64.15
24620;BME280;12763;55.802;37.404;2022-09-13T04:41:53;99453.75;;;13.08;63.77
24620;BME280;12763;55.802;37.404;2022-09-13T04:44:20;99461.13;;;13.14;63.47
24620;BME280;12763;55.802;37.404;2022-09-13T04:46:47;99449.22;;;13.25;63.65
24620;BME280;12763;55.802;37.404;2022-09-13T04:49:14;99445.34;;;13.26;63.38
24620;BME280;12763;55.802;37.404;2022-09-13T04:51:41;99457.75;;;13.23;63.05
24620;BME280;12763;55.802;37.404;2022-09-13T04:54:09;99457.66;;;13.30;63.18
24620;BME280;12763;55.802;37.404;2022-09-13T04:56:36;99460.94;;;13.38;62.76
24620;BME280;12763;55.802;37.404;2022-09-13T04:59:02;99457.72;;;13.53;62.38
24620;BME280;12763;55.802;37.404;2022-09-13T05:01:28;99457.81;;;13.58;62.59
24620;BME280;12763;55.802;37.404;2022-09-13T05:03:54;99461.31;;;13.42;62.41
24620;BME280;12763;55.802;37.404;2022-09-13T05:06:21;99463.09;;;13.48;62.34
24620;BME280;12763;55.802;37.404;2022-09-13T05:08:52;99465.16;;;13.52;62.33
24620;BME280;12763;55.802;37.404;2022-09-13T05:11:27;99460.25;;;13.66;62.18
24620;BME280;12763;55.802;37.404;2022-09-13T05:13:55;99463.00;;;13.66;61.91
24620;BME280;12763;55.802;37.404;2022-09-13T05:16:26;99460.25;;;13.78;61.85
24620;BME280;12763;55.802;37.404;2022-09-13T05:18:52;99465.16;;;13.87;61.49
24620;BME280;12763;55.802;37.404;2022-09-13T05:21:18;99459.84;;;13.97;61.27
24620;BME280;12763;55.802;37.404;2022-09-13T05:23:52;99458.53;;;14.00;61.28
24620;BME280;12763;55.802;37.404;2022-09-13T05:26:19;99468.91;;;14.04;61.12
24620;BME280;12763;55.802;37.404;2022-09-13T05:28:45;99461.44;;;14.05;61.14
24620;BME280;12763;55.802;37.404;2022-09-13T05:31:16;99463.25;;;14.11;60.97
24620;BME280;12763;55.802;37.404;2022-09-13T05:33:42;99468.53;;;14.12;60.81
24620;BME280;12763;55.802;37.404;2022-09-13T05:36:08;99463.94;;;14.18;60.85
24620;BME280;12763;55.802;37.404;2022-09-13T05:38:34;99463.09;;;14.18;60.77
24620;BME280;12763;55.802;37.404;2022-09-13T05:41:02;99463.69;;;14.20;60.66
24620;BME280;12763;55.802;37.404;2022-09-13T05:43:33;99469.50;;;14.06;61.15
24620;BME280;12763;55.802;37.404;2022-09-13T05:46:10;99457.44;;;14.12;60.92
24620;BME280;12763;55.802;37.404;2022-09-13T05:48:36;99464.06;;;14.11;61.06
24620;BME280;12763;55.802;37.404;2022-09-13T05:51:04;99461.16;;;14.18;60.69
24620;BME280;12763;55.802;37.404;2022-09-13T05:53:31;99470.72;;;14.10;61.09
24620;BME280;12763;55.802;37.404;2022-09-13T05:55:57;99463.47;;;14.09;61.00
24620;BME280;12763;55.802;37.404;2022-09-13T05:58:23;99462.63;;;13.97;61.48
24620;BME280;12763;55.802;37.404;2022-09-13T06:00:55;99461.91;;;14.13;60.70
24620;BME280;12763;55.802;37.404;2022-09-13T06:03:22;99463.56;;;14.26;60.85
24620;BME280;12763;55.802;37.404;2022-09-13T06:05:49;99467.31;;;14.32;60.47
24620;BME280;12763;55.802;37.404;2022-09-13T06:08:15;99455.25;;;14.38;60.15
24620;BME280;12763;55.802;37.404;2022-09-13T06:10:41;99459.81;;;14.44;60.06
24620;BME280;12763;55.802;37.404;2022-09-13T06:13:07;99459.44;;;14.52;60.13
24620;BME280;12763;55.802;37.404;2022-09-13T06:15:32;99452.09;;;14.46;60.16
24620;BME280;12763;55.802;37.404;2022-09-13T06:17:58;99453.78;;;14.47;59.99
24620;BME280;12763;55.802;37.404;2022-09-13T06:20:24;99461.56;;;14.61;59.65
24620;BME280;12763;55.802;37.404;2022-09-13T06:22:50;99459.72;;;14.67;59.53
24620;BME280;12763;55.802;37.404;2022-09-13T06:25:16;99460.97;;;14.59;59.59
24620;BME280;12763;55.802;37.404;2022-09-13T06:27:42;99459.91;;;14.60;59.54
24620;BME280;12763;55.802;37.404;2022-09-13T06:30:11;99456.63;;;14.63;59.47
24620;BME280;12763;55.802;37.404;2022-09-13T06:32:37;99467.53;;;14.42;59.93
24620;BME280;12763;55.802;37.404;2022-09-13T06:35:05;99468.09;;;14.55;59.73
24620;BME280;12763;55.802;37.404;2022-09-13T06:37:31;99465.31;;;14.55;59.79
24620;BME280;12763;55.802;37.404;2022-09-13T06:39:56;99474.06;;;14.76;59.18
24620;BME280;12763;55.802;37.404;2022-09-13T06:42:22;99464.88;;;14.75;59.70
24620;BME280;12763;55.802;37.404;2022-09-13T06:44:50;99462.47;;;14.79;59.13
24620;BME280;12763;55.802;37.404;2022-09-13T06:47:16;99459.53;;;14.57;59.52
24620;BME280;12763;55.802;37.404;2022-09-13T06:49:41;99460.00;;;14.65;59.61
24620;BME280;12763;55.802;37.404;2022-09-13T06:52:07;99464.66;;;14.77;59.38
24620;BME280;12763;55.802;37.404;2022-09-13T06:54:33;99465.03;;;14.97;58.66
24620;BME280;12763;55.802;37.404;2022-09-13T06:56:59;99458.25;;;15.04;58.51
24620;BME280;12763;55.802;37.404;2022-09-13T06:59:27;99457.09;;;15.17;57.93
24620;BME280;12763;55.802;37.404;2022-09-13T07:01:53;99458.53;;;15.19;58.08
24620;BME280;12763;55.802;37.404;2022-09-13T07:04:19;99449.75;;;15.27;57.57
24620;BME280;12763;55.802;37.404;2022-09-13T07:06:48;99451.72;;;15.27;57.75
24620;BME280;12763;55.802;37.404;2022-09-13T07:09:17;99455.19;;;15.34;57.72
24620;BME280;12763;55.802;37.404;2022-09-13T07:11:44;99453.31;;;15.40;57.20
24620;BME280;12763;55.802;37.404;2022-09-13T07:14:13;99454.53;;;15.60;56.66
24620;BME280;12763;55.802;37.404;2022-09-13T07:16:39;99446.72;;;15.57;56.68
24620;BME280;12763;55.802;37.404;2022-09-13T07:19:07;99449.56;;;15.62;56.82
24620;BME280;12763;55.802;37.404;2022-09-13T07:21:36;99449.06;;;15.65;56.57
24620;BME280;12763;55.802;37.404;2022-09-13T07:24:02;99435.16;;;15.49;56.63
24620;BME280;12763;55.802;37.404;2022-09-13T07:26:29;99432.19;;;15.72;56.36
24620;BME280;12763;55.802;37.404;2022-09-13T07:28:57;99436.53;;;16.01;55.47
24620;BME280;12763;55.802;37.404;2022-09-13T07:31:25;99428.13;;;15.96;55.31
24620;BME280;12763;55.802;37.404;2022-09-13T07:33:54;99433.06;;;16.11;55.04
24620;BME280;12763;55.802;37.404;2022-09-13T07:36:20;99434.19;;;16.31;54.48
24620;BME280;12763;55.802;37.404;2022-09-13T07:38:46;99423.66;;;16.55;53.93
24620;BME280;12763;55.802;37.404;2022-09-13T07:41:15;99421.88;;;16.71;53.37
24620;BME280;12763;55.802;37.404;2022-09-13T07:43:41;99418.69;;;16.84;52.89
24620;BME280;12763;55.802;37.404;2022-09-13T07:46:15;99420.97;;;16.87;52.18
24620;BME280;12763;55.802;37.404;2022-09-13T07:48:43;99413.88;;;17.01;52.01
24620;BME280;12763;55.802;37.404;2022-09-13T07:51:11;99420.75;;;17.20;51.69
24620;BME280;12763;55.802;37.404;2022-09-13T07:53:38;99412.91;;;17.17;51.15
24620;BME280;12763;55.802;37.404;2022-09-13T07:56:05;99414.78;;;17.43;50.52
24620;BME280;12763;55.802;37.404;2022-09-13T07:58:33;99411.22;;;17.48;50.40
24620;BME280;12763;55.802;37.404;2022-09-13T08:01:12;99411.13;;;17.65;49.82
24620;BME280;12763;55.802;37.404;2022-09-13T08:03:39;99394.81;;;17.88;49.49
24620;BME280;12763;55.802;37.404;2022-09-13T08:06:06;99394.28;;;17.91;49.04
24620;BME280;12763;55.802;37.404;2022-09-13T08:08:33;99390.59;;;17.86;49.27
24620;BME280;12763;55.802;37.404;2022-09-13T08:11:00;99400.78;;;18.07;48.54
24620;BME280;12763;55.802;37.404;2022-09-13T08:13:27;99397.75;;;18.13;48.48
24620;BME280;12763;55.802;37.404;2022-09-13T08:15:54;99389.59;;;18.07;48.19
24620;BME280;12763;55.802;37.404;2022-09-13T08:18:20;99383.47;;;18.05;48.08
24620;BME280;12763;55.802;37.404;2022-09-13T08:20:46;99390.44;;;18.07;47.94
24620;BME280;12763;55.802;37.404;2022-09-13T08:23:13;99389.81;;;17.95;47.89
24620;BME280;12763;55.802;37.404;2022-09-13T08:25:39;99381.50;;;17.58;48.80
24620;BME280;12763;55.802;37.404;2022-09-13T08:28:12;99386.13;;;17.85;48.06
24620;BME280;12763;55.802;37.404;2022-09-13T08:30:39;99382.28;;;17.96;47.95
24620;BME280;12763;55.802;37.404;2022-09-13T08:33:07;99377.41;;;17.39;48.55
24620;BME280;12763;55.802;37.404;2022-09-13T08:35:33;99376.59;;;17.76;47.58
24620;BME280;12763;55.802;37.404;2022-09-13T08:38:00;99379.97;;;17.83;47.22
24620;BME280;12763;55.802;37.404;2022-09-13T08:40:29;99370.00;;;17.97;47.08
24620;BME280;12763;55.802;37.404;2022-09-13T08:45:40;99372.78;;;17.92;46.41
24620;BME280;12763;55.802;37.404;2022-09-13T08:48:14;99371.72;;;18.03;46.46
24620;BME280;12763;55.802;37.404;2022-09-13T08:50:41;99370.25;;;17.95;46.76
24620;BME280;12763;55.802;37.404;2022-09-13T08:53:25;99358.66;;;17.67;46.42
24620;BME280;12763;55.802;37.404;2022-09-13T08:56:08;99358.09;;;17.65;46.84
24620;BME280;12763;55.802;37.404;2022-09-13T09:01:49;99356.44;;;18.20;44.72
24620;BME280;12763;55.802;37.404;2022-09-13T09:07:09;99343.41;;;18.46;44.14
24620;BME280;12763;55.802;37.404;2022-09-13T09:09:54;99343.66;;;18.35;44.38
24620;BME280;12763;55.802;37.404;2022-09-13T09:15:35;99334.38;;;18.19;44.90
24620;BME280;12763;55.802;37.404;2022-09-13T09:21:01;99325.56;;;18.47;44.85
24620;BME280;12763;55.802;37.404;2022-09-13T09:26:24;99316.72;;;18.86;43.53
24620;BME280;12763;55.802;37.404;2022-09-13T09:32:02;99311.13;;;18.86;44.03
24620;BME280;12763;55.802;37.404;2022-09-13T09:39:38;99297.69;;;19.23;42.83
24620;BME280;12763;55.802;37.404;2022-09-13T09:42:16;99294.06;;;19.53;41.63
24620;BME280;12763;55.802;37.404;2022-09-13T09:44:46;99301.63;;;18.97;42.64
24620;BME280;12763;55.802;37.404;2022-09-13T09:47:23;99301.91;;;18.95;42.57
24620;BME280;12763;55.802;37.404;2022-09-13T09:49:54;99292.88;;;18.48;42.60
24620;BME280;12763;55.802;37.404;2022-09-13T09:55:29;99299.09;;;18.75;42.74
24620;BME280;12763;55.802;37.404;2022-09-13T10:00:24;99296.25;;;18.50;43.14
24620;BME280;12763;55.802;37.404;2022-09-13T10:02:52;99291.97;;;18.32;43.45
24620;BME280;12763;55.802;37.404;2022-09-13T10:05:21;99285.78;;;18.15;43.73
24620;BME280;12763;55.802;37.404;2022-09-13T10:07:57;99285.28;;;18.28;43.76
24620;BME280;12763;55.802;37.404;2022-09-13T10:12:53;99290.38;;;18.51;43.68
24620;BME280;12763;55.802;37.404;2022-09-13T10:15:24;99287.03;;;18.59;43.55
24620;BME280;12763;55.802;37.404;2022-09-13T10:18:15;99285.09;;;18.60;43.55
24620;BME280;12763;55.802;37.404;2022-09-13T10:20:42;99285.53;;;18.22;44.26
24620;BME280;12763;55.802;37.404;2022-09-13T10:23:25;99289.06;;;17.97;44.82
24620;BME280;12763;55.802;37.404;2022-09-13T10:26:14;99278.53;;;18.19;45.41
24620;BME280;12763;55.802;37.404;2022-09-13T10:29:07;99284.63;;;18.06;44.89
24620;BME280;12763;55.802;37.404;2022-09-13T10:31:46;99276.31;;;18.26;44.60
24620;BME280;12763;55.802;37.404;2022-09-13T10:34:32;99268.47;;;18.13;45.30
24620;BME280;12763;55.802;37.404;2022-09-13T10:37:09;99275.19;;;18.17;44.95
24620;BME280;12763;55.802;37.404;2022-09-13T10:39:54;99270.94;;;18.09;44.97
24620;BME280;12763;55.802;37.404;2022-09-13T10:42:23;99268.22;;;17.63;45.84
24620;BME280;12763;55.802;37.404;2022-09-13T10:44:58;99272.72;;;17.69;46.19
24620;BME280;12763;55.802;37.404;2022-09-13T10:47:30;99264.44;;;17.84;46.04
24620;BME280;12763;55.802;37.404;2022-09-13T10:50:30;99265.31;;;17.94;45.79
24620;BME280;12763;55.802;37.404;2022-09-13T10:53:01;99263.31;;;17.80;45.85
24620;BME280;12763;55.802;37.404;2022-09-13T10:55:33;99253.84;;;17.91;45.33
24620;BME280;12763;55.802;37.404;2022-09-13T11:00:44;99260.38;;;17.54;45.07
24620;BME280;12763;55.802;37.404;2022-09-13T11:14:50;99253.16;;;17.58;46.06
24620;BME280;12763;55.802;37.404;2022-09-13T11:31:13;99238.94;;;17.60;45.39
24620;BME280;12763;55.802;37.404;2022-09-13T11:39:29;99231.41;;;17.66;44.99
24620;BME280;12763;55.802;37.404;2022-09-13T11:56:00;99219.41;;;17.65;45.83
24620;BME280;12763;55.802;37.404;2022-09-13T12:01:36;99210.66;;;17.46;45.94
24620;BME280;12763;55.802;37.404;2022-09-13T12:04:04;99209.47;;;17.37;46.07
24620;BME280;12763;55.802;37.404;2022-09-13T12:06:45;99212.78;;;17.29;46.02
24620;BME280;12763;55.802;37.404;2022-09-13T12:09:32;99217.94;;;17.52;45.77
24620;BME280;12763;55.802;37.404;2022-09-13T12:12:06;99204.50;;;17.44;45.74
24620;BME280;12763;55.802;37.404;2022-09-13T12:17:20;99201.19;;;17.52;45.76
24620;BME280;12763;55.802;37.404;2022-09-13T12:19:51;99205.06;;;17.41;46.00
24620;BME280;12763;55.802;37.404;2022-09-13T12:22:22;99207.13;;;17.56;45.80
24620;BME280;12763;55.802;37.404;2022-09-13T12:24:57;99196.72;;;17.46;45.31
24620;BME280;12763;55.802;37.404;2022-09-13T12:27:33;99205.06;;;17.41;45.47
24620;BME280;12763;55.802;37.404;2022-09-13T12:32:32;99195.47;;;17.22;45.53
24620;BME280;12763;55.802;37.404;2022-09-13T12:35:03;99190.19;;;17.26;45.62
24620;BME280;12763;55.802;37.404;2022-09-13T12:46:28;99189.06;;;17.27;45.78
24620;BME280;12763;55.802;37.404;2022-09-13T13:00:44;99159.34;;;17.47;45.29
24620;BME280;12763;55.802;37.404;2022-09-13T13:03:17;99159.28;;;17.37;45.39
24620;BME280;12763;55.802;37.404;2022-09-13T13:11:10;99147.66;;;17.50;45.33
24620;BME280;12763;55.802;37.404;2022-09-13T13:13:37;99147.34;;;17.47;45.55
24620;BME280;12763;55.802;37.404;2022-09-13T13:16:21;99154.88;;;17.51;46.59
24620;BME280;12763;55.802;37.404;2022-09-13T13:18:51;99143.59;;;17.26;45.76
24620;BME280;12763;55.802;37.404;2022-09-13T13:21:38;99160.09;;;17.33;45.37
24620;BME280;12763;55.802;37.404;2022-09-13T13:29:24;99141.16;;;17.40;45.32
24620;BME280;12763;55.802;37.404;2022-09-13T13:37:00;99133.00;;;17.23;45.53
24620;BME280;12763;55.802;37.404;2022-09-13T13:41:57;99128.56;;;17.22;45.67
24620;BME280;12763;55.802;37.404;2022-09-13T13:46:54;99131.91;;;17.29;45.31
24620;BME280;12763;55.802;37.404;2022-09-13T13:57:32;99101.78;;;17.26;45.29
24620;BME280;12763;55.802;37.404;2022-09-13T14:00:20;99103.78;;;17.31;44.99
24620;BME280;12763;55.802;37.404;2022-09-13T14:08:40;99097.13;;;17.37;45.42
24620;BME280;12763;55.802;37.404;2022-09-13T14:11:36;99095.66;;;17.29;45.64
24620;BME280;12763;55.802;37.404;2022-09-13T14:14:32;99097.88;;;17.17;45.53
24620;BME280;12763;55.802;37.404;2022-09-13T14:19:51;99088.69;;;17.22;45.55
24620;BME280;12763;55.802;37.404;2022-09-13T14:22:22;99093.41;;;17.26;45.41
24620;BME280;12763;55.802;37.404;2022-09-13T14:24:57;99091.22;;;17.33;45.19
24620;BME280;12763;55.802;37.404;2022-09-13T14:27:28;99095.97;;;17.33;45.42
24620;BME280;12763;55.802;37.404;2022-09-13T14:29:57;99097.31;;;17.20;45.73
24620;BME280;12763;55.802;37.404;2022-09-13T14:32:29;99107.63;;;17.20;45.91
24620;BME280;12763;55.802;37.404;2022-09-13T14:34:59;99109.88;;;17.23;45.87
24620;BME280;12763;55.802;37.404;2022-09-13T14:37:29;99101.22;;;17.19;45.95
24620;BME280;12763;55.802;37.404;2022-09-13T14:42:49;99096.19;;;17.21;45.92
24620;BME280;12763;55.802;37.404;2022-09-13T14:45:22;99104.84;;;17.20;46.18
24620;BME280;12763;55.802;37.404;2022-09-13T14:48:15;99102.09;;;17.30;45.95
24620;BME280;12763;55.802;37.404;2022-09-13T14:53:53;99098.34;;;17.04;46.58
24620;BME280;12763;55.802;37.404;2022-09-13T14:56:35;99097.81;;;17.07;46.26
24620;BME280;12763;55.802;37.404;2022-09-13T14:59:13;99098.94;;;17.11;46.03
24620;BME280;12763;55.802;37.404;2022-09-13T15:01:41;99088.81;;;16.90;46.27
24620;BME280;12763;55.802;37.404;2022-09-13T15:04:07;99095.50;;;16.94;46.23
24620;BME280;12763;55.802;37.404;2022-09-13T15:06:36;99096.34;;;16.94;46.15
24620;BME280;12763;55.802;37.404;2022-09-13T15:11:41;99088.53;;;16.91;46.24
24620;BME280;12763;55.802;37.404;2022-09-13T15:14:25;99094.34;;;16.85;46.47
24620;BME280;12763;55.802;37.404;2022-09-13T15:16:56;99093.88;;;16.98;46.32
24620;BME280;12763;55.802;37.404;2022-09-13T15:21:49;99088.72;;;16.75;46.75
24620;BME280;12763;55.802;37.404;2022-09-13T15:24:29;99086.59;;;16.97;47.02
24620;BME280;12763;55.802;37.404;2022-09-13T15:27:04;99082.63;;;16.83;48.01
24620;BME280;12763;55.802;37.404;2022-09-13T15:29:31;99084.38;;;16.94;47.04
24620;BME280;12763;55.802;37.404;2022-09-13T15:32:00;99088.75;;;16.85;47.18
24620;BME280;12763;55.802;37.404;2022-09-13T15:34:27;99082.13;;;16.91;47.72
24620;BME280;12763;55.802;37.404;2022-09-13T15:39:25;99081.44;;;16.74;47.50
24620;BME280;12763;55.802;37.404;2022-09-13T15:41:56;99078.72;;;16.79;47.80
24620;BME280;12763;55.802;37.404;2022-09-13T15:44:24;99083.19;;;16.85;47.19
24620;BME280;12763;55.802;37.404;2022-09-13T15:46:55;99077.63;;;16.85;47.25
24620;BME280;12763;55.802;37.404;2022-09-13T15:49:24;99077.56;;;16.75;47.40
24620;BME280;12763;55.802;37.404;2022-09-13T15:51:55;99076.13;;;16.67;47.79
24620;BME280;12763;55.802;37.404;2022-09-13T15:54:25;99079.16;;;16.66;47.56
24620;BME280;12763;55.802;37.404;2022-09-13T15:56:51;99067.47;;;16.64;47.65
24620;BME280;12763;55.802;37.404;2022-09-13T15:59:20;99076.16;;;16.72;47.67
24620;BME280;12763;55.802;37.404;2022-09-13T16:01:47;99069.66;;;16.57;48.27
24620;BME280;12763;55.802;37.404;2022-09-13T16:04:14;99069.50;;;16.73;47.89
24620;BME280;12763;55.802;37.404;2022-09-13T16:06:41;99064.47;;;16.70;48.29
24620;BME280;12763;55.802;37.404;2022-09-13T16:09:21;99063.69;;;16.85;47.71
24620;BME280;12763;55.802;37.404;2022-09-13T16:11:49;99057.50;;;16.73;47.87
24620;BME280;12763;55.802;37.404;2022-09-13T16:14:16;99056.63;;;16.62;48.02
24620;BME280;12763;55.802;37.404;2022-09-13T16:16:43;99065.75;;;16.58;48.81
24620;BME280;12763;55.802;37.404;2022-09-13T16:19:18;99062.03;;;16.84;48.32
24620;BME280;12763;55.802;37.404;2022-09-13T16:21:45;99058.03;;;16.65;48.78
24620;BME280;12763;55.802;37.404;2022-09-13T16:24:15;99054.13;;;16.71;49.13
24620;BME280;12763;55.802;37.404;2022-09-13T16:26:44;99064.19;;;16.72;48.58
24620;BME280;12763;55.802;37.404;2022-09-13T16:29:11;99052.16;;;16.29;49.80
24620;BME280;12763;55.802;37.404;2022-09-13T16:31:37;99067.34;;;16.49;49.79
24620;BME280;12763;55.802;37.404;2022-09-13T16:34:04;99060.06;;;16.42;50.25
24620;BME280;12763;55.802;37.404;2022-09-13T16:36:30;99067.34;;;16.49;50.10
24620;BME280;12763;55.802;37.404;2022-09-13T16:38:59;99062.91;;;16.53;50.56
24620;BME280;12763;55.802;37.404;2022-09-13T16:41:25;99057.81;;;16.39;51.49
24620;BME280;12763;55.802;37.404;2022-09-13T16:43:53;99054.75;;;16.41;52.00